Forside
METAR-TAF:

METAR-TAF

Lufthavne :

Webster City Municipal Airport

Webster City, Iowa, USA

Breddekreds: 42-26N, længdekreds: 093-52W, højde: 342 m

Aktuelle vejr

Denne rapport blev lavet for 17 minutter siden, kl. 18:35 UTC
Vind 6 kt fra nordnordvest
Temperatur -4°C
Fugtighed 86%
Tryk 1029 hPa
Sigt: 16.1 km
Brudte skyer i en højde af 1200 ft

METAR: KEBS 061835Z AUTO 33006KT 10SM BKN012 M04/M06 A3038 RMK AO2

Tid: 12:52 (18:52 UTC)


TAF: fraværende

Vejrobservationer og prognoser fra mere end 4000 lufthavne (METAR og TAF).

De gule og røde prikker repræsenterer de meteorologiske stationer.

Flyt musen over at se navnet på stationen.

Så klik over at se vejr observationer og prognoser.

At skifte det kort: Klik på de grønne knapper med et sort kors for at zoome ind; på den grønne knap med en bindestreg for at zoome ud; eller på de grønne pile for tilstødende kort.


METAR-TAF: